createdAt,value
2018-08-10T00:00:22.344Z,48.70
2018-08-10T00:05:26.184Z,49.00
2018-08-10T00:10:30.292Z,48.80
2018-08-10T00:15:34.219Z,48.80
2018-08-10T00:20:38.090Z,48.70
2018-08-10T00:25:41.927Z,48.70
2018-08-10T00:30:45.812Z,48.70
2018-08-10T00:35:49.704Z,48.70
2018-08-10T00:40:53.456Z,48.70
2018-08-10T00:45:57.360Z,48.70
2018-08-10T00:51:01.072Z,48.70
2018-08-10T00:56:04.866Z,48.70
2018-08-10T01:01:08.721Z,48.60
2018-08-10T01:06:12.743Z,48.60
2018-08-10T01:11:16.621Z,48.70
2018-08-10T01:16:20.460Z,48.60
2018-08-10T01:21:24.883Z,48.70
2018-08-10T01:26:28.707Z,48.60
2018-08-10T01:31:32.860Z,48.50
2018-08-10T01:36:36.808Z,48.50
2018-08-10T01:41:40.711Z,48.60
2018-08-10T01:46:44.812Z,48.60
2018-08-10T01:51:48.579Z,48.60
2018-08-10T01:56:52.299Z,48.50
2018-08-10T02:01:56.628Z,48.40
2018-08-10T02:07:00.570Z,48.40
2018-08-10T02:12:04.932Z,48.40
2018-08-10T02:17:08.610Z,48.30
2018-08-10T02:22:12.332Z,48.30
2018-08-10T02:27:16.324Z,48.30
2018-08-10T02:32:20.047Z,48.20
2018-08-10T02:37:23.830Z,48.20
2018-08-10T02:42:27.700Z,48.20
2018-08-10T02:47:33.801Z,48.20
2018-08-10T02:52:37.538Z,48.10
2018-08-10T02:57:41.967Z,48.10
2018-08-10T03:02:46.206Z,48.20
2018-08-10T03:07:50.276Z,48.10
2018-08-10T03:12:54.170Z,48.10
2018-08-10T03:17:58.113Z,48.10
2018-08-10T03:23:04.427Z,48.00
2018-08-10T03:28:08.365Z,48.10
2018-08-10T03:33:12.141Z,48.10
2018-08-10T03:49:17.931Z,48.10
2018-08-10T03:54:21.915Z,48.10
2018-08-10T03:59:25.648Z,48.20
2018-08-10T04:04:29.502Z,48.10
2018-08-10T04:15:18.167Z,48.20
2018-08-10T04:20:21.912Z,48.30
2018-08-10T04:25:25.663Z,48.30
2018-08-10T04:30:29.841Z,48.40
2018-08-10T04:35:33.977Z,48.50
2018-08-10T04:40:37.713Z,48.60
2018-08-10T04:45:41.599Z,48.70
2018-08-10T04:50:45.764Z,48.70
2018-08-10T04:55:49.800Z,48.80
2018-08-10T05:00:53.606Z,48.80
2018-08-10T05:05:57.693Z,48.90
2018-08-10T05:11:01.522Z,48.90
2018-08-10T05:16:05.482Z,49.00
2018-08-10T05:21:09.458Z,49.00
2018-08-10T05:26:13.469Z,49.00
2018-08-10T05:31:17.548Z,49.10
2018-08-10T05:36:21.399Z,49.00
2018-08-10T05:41:25.307Z,49.10
2018-08-10T05:46:29.330Z,49.10
2018-08-10T05:51:33.126Z,49.70
2018-08-10T05:56:37.055Z,49.10
2018-08-10T06:01:41.142Z,50.10
2018-08-10T06:06:45.276Z,49.50
2018-08-10T06:11:49.200Z,49.30
2018-08-10T06:16:53.531Z,49.10
2018-08-10T06:21:57.464Z,49.10
2018-08-10T06:27:06.727Z,49.10
2018-08-10T06:32:10.716Z,49.20
2018-08-10T06:37:14.679Z,49.20
2018-08-10T06:42:18.667Z,49.10
2018-08-10T06:47:22.637Z,49.10
2018-08-10T06:52:26.744Z,49.10
2018-08-10T06:57:30.665Z,48.90
2018-08-10T07:02:34.521Z,48.80
2018-08-10T07:07:38.907Z,49.00
2018-08-10T07:12:42.812Z,48.90
2018-08-10T07:18:04.608Z,48.90
2018-08-10T07:23:08.503Z,48.80
2018-08-10T07:28:30.682Z,48.80
2018-08-10T07:33:34.460Z,48.80
2018-08-10T07:38:38.571Z,48.70
2018-08-10T07:43:43.483Z,48.50
2018-08-10T07:48:50.151Z,48.30
2018-08-10T07:53:54.219Z,48.30
2018-08-10T07:58:58.061Z,48.40
2018-08-10T08:04:01.831Z,48.60
2018-08-10T08:09:08.639Z,48.40
2018-08-10T08:14:12.399Z,48.40
2018-08-10T08:19:17.486Z,48.40
2018-08-10T08:24:22.165Z,48.20
2018-08-10T08:29:28.468Z,48.20
2018-08-10T08:34:32.683Z,47.90
2018-08-10T08:40:17.848Z,47.90
2018-08-10T08:46:24.262Z,47.70
2018-08-10T08:51:28.215Z,47.70
2018-08-10T08:56:42.500Z,47.60
2018-08-10T09:01:46.343Z,47.70
2018-08-10T09:06:50.604Z,47.80
2018-08-10T09:11:54.368Z,47.60
2018-08-10T09:16:58.244Z,47.40
2018-08-10T09:22:01.976Z,47.30
2018-08-10T09:27:05.924Z,47.00
2018-08-10T09:32:09.817Z,46.90
2018-08-10T09:37:13.582Z,46.70
2018-08-10T09:42:17.611Z,46.40
2018-08-10T09:47:32.895Z,46.30
2018-08-10T09:52:36.982Z,46.40
2018-08-10T09:57:48.532Z,46.30
2018-08-10T10:02:53.301Z,46.00
2018-08-10T10:19:10.862Z,45.50
2018-08-10T10:24:14.854Z,45.30
2018-08-10T10:29:18.825Z,44.90
2018-08-10T10:34:23.274Z,45.10
2018-08-10T10:50:23.543Z,44.90
2018-08-10T10:55:27.359Z,44.30
2018-08-10T11:00:31.057Z,44.30
2018-08-10T11:05:34.986Z,44.30
2018-08-10T11:10:39.538Z,43.30
2018-08-10T11:15:44.047Z,43.80
2018-08-10T11:20:47.829Z,43.90
2018-08-10T11:25:51.664Z,43.90
2018-08-10T11:30:55.775Z,44.00
2018-08-10T11:35:59.634Z,43.80
2018-08-10T11:41:04.108Z,43.60
2018-08-10T11:46:08.337Z,43.20
2018-08-10T11:51:12.781Z,43.00
2018-08-10T11:56:16.660Z,42.80
2018-08-10T12:01:20.754Z,42.60
2018-08-10T12:06:24.755Z,42.50
2018-08-10T12:11:28.604Z,42.10
2018-08-10T12:16:32.703Z,41.60
2018-08-10T12:21:36.719Z,41.30
2018-08-10T12:26:40.723Z,41.40
2018-08-10T12:31:45.504Z,41.50
2018-08-10T12:36:49.436Z,41.00
2018-08-10T12:41:58.162Z,33.90
2018-08-10T12:47:02.018Z,37.90
2018-08-10T12:52:06.993Z,38.80
2018-08-10T12:57:12.040Z,38.90
2018-08-10T13:02:17.348Z,39.70
2018-08-10T13:07:21.716Z,39.10
2018-08-10T13:12:29.371Z,39.10
2018-08-10T13:17:33.223Z,39.10
2018-08-10T13:22:37.872Z,39.40
2018-08-10T13:27:41.755Z,39.30
2018-08-10T13:32:47.548Z,39.20
2018-08-10T13:38:02.892Z,39.10
2018-08-10T13:43:07.304Z,38.90
2018-08-10T13:48:10.984Z,38.60
2018-08-10T13:53:14.822Z,38.60
2018-08-10T13:58:18.931Z,38.30
2018-08-10T14:03:22.600Z,38.10
2018-08-10T14:19:35.466Z,38.20
2018-08-10T14:24:39.822Z,38.30
2018-08-10T14:29:43.527Z,38.50
2018-08-10T14:34:47.531Z,38.30
2018-08-10T14:39:51.615Z,38.00
2018-08-10T14:44:56.697Z,38.30
2018-08-10T14:50:01.015Z,38.00
2018-08-10T14:55:06.133Z,37.50
2018-08-10T15:00:17.052Z,37.40
2018-08-10T15:05:21.955Z,37.20
2018-08-10T15:15:47.085Z,36.90
2018-08-10T15:26:09.455Z,36.60
2018-08-10T15:41:36.815Z,37.00
2018-08-10T15:46:40.656Z,37.30
2018-08-10T15:51:45.665Z,36.90
2018-08-10T15:56:49.559Z,36.80
2018-08-10T16:01:53.440Z,36.80
2018-08-10T16:06:57.265Z,30.70
2018-08-10T16:12:01.280Z,34.60
2018-08-10T16:17:05.180Z,35.20
2018-08-10T16:22:09.171Z,35.60
2018-08-10T16:27:13.133Z,35.60
2018-08-10T16:32:17.151Z,36.30
2018-08-10T16:37:21.195Z,35.60
2018-08-10T16:42:25.012Z,35.50
2018-08-10T16:47:29.011Z,35.50
2018-08-10T16:52:33.139Z,35.60
2018-08-10T17:03:07.324Z,35.30
2018-08-10T17:08:11.280Z,35.40
2018-08-10T17:13:15.088Z,35.40
2018-08-10T17:18:19.235Z,35.20
2018-08-10T17:23:23.378Z,35.30
2018-08-10T17:34:02.717Z,35.40
2018-08-10T17:39:10.232Z,35.50
2018-08-10T17:44:14.109Z,35.50
2018-08-10T17:49:36.120Z,35.50
2018-08-10T17:54:40.235Z,35.50
2018-08-10T17:59:44.328Z,35.50
2018-08-10T18:04:48.169Z,35.40
2018-08-10T18:09:52.103Z,35.50
2018-08-10T18:14:56.216Z,35.40
2018-08-10T18:19:59.946Z,35.50
2018-08-10T18:25:03.795Z,35.50
2018-08-10T18:30:10.295Z,35.50
2018-08-10T18:35:14.080Z,35.50
2018-08-10T18:40:17.956Z,35.50
2018-08-10T18:45:22.160Z,35.60
2018-08-10T18:50:25.947Z,35.50
2018-08-10T18:55:29.706Z,35.60
2018-08-10T19:00:33.908Z,35.60
2018-08-10T19:05:37.710Z,35.60
2018-08-10T19:10:41.720Z,35.60
2018-08-10T19:15:45.945Z,35.70
2018-08-10T19:20:49.943Z,35.70
2018-08-10T19:25:53.784Z,35.60
2018-08-10T19:30:58.190Z,35.60
2018-08-10T19:36:02.033Z,35.80
2018-08-10T19:41:06.258Z,35.70
2018-08-10T19:46:10.173Z,35.80
2018-08-10T19:51:15.195Z,35.80
2018-08-10T19:56:20.210Z,35.80
2018-08-10T20:01:24.184Z,35.90
2018-08-10T20:06:28.134Z,35.80
2018-08-10T20:11:32.042Z,35.90
2018-08-10T20:16:35.997Z,35.90
2018-08-10T20:21:39.985Z,35.80
2018-08-10T20:26:43.953Z,36.00
2018-08-10T20:31:47.821Z,35.90
2018-08-10T20:36:51.973Z,36.00
2018-08-10T20:41:55.903Z,36.00
2018-08-10T20:47:07.104Z,36.10
2018-08-10T20:52:10.986Z,36.20
2018-08-10T21:03:05.450Z,36.20
2018-08-10T21:08:11.840Z,36.30
2018-08-10T21:13:16.009Z,36.20
2018-08-10T21:18:19.954Z,36.30
2018-08-10T21:23:24.089Z,36.30
2018-08-10T21:28:27.881Z,36.20
2018-08-10T21:33:31.813Z,36.20
2018-08-10T21:38:35.551Z,36.20
2018-08-10T21:43:40.711Z,36.10
2018-08-10T21:48:44.536Z,36.00
2018-08-10T21:53:48.470Z,35.90
2018-08-10T21:58:52.431Z,35.90
2018-08-10T22:03:56.678Z,35.90
2018-08-10T22:09:01.751Z,35.80
2018-08-10T22:14:10.759Z,35.70
2018-08-10T22:24:59.280Z,35.90
2018-08-10T22:30:03.356Z,35.80
2018-08-10T22:35:07.027Z,35.80
2018-08-10T22:40:10.981Z,35.80
2018-08-10T22:45:15.381Z,35.90
2018-08-10T22:50:19.183Z,35.90
2018-08-10T22:55:23.208Z,35.90
2018-08-10T23:00:27.422Z,36.00
2018-08-10T23:05:31.298Z,36.00
2018-08-10T23:10:35.511Z,36.10
2018-08-10T23:15:39.559Z,36.00
2018-08-10T23:20:43.386Z,36.10
2018-08-10T23:25:47.369Z,36.10
2018-08-10T23:30:51.251Z,36.10
2018-08-10T23:35:55.209Z,36.20
2018-08-10T23:40:58.913Z,36.20
2018-08-10T23:46:02.813Z,36.10
2018-08-10T23:51:06.792Z,36.20
2018-08-10T23:56:10.614Z,36.20
